Terminal Aerodrome Forecast
Issued by NWS Albuquerque, NM

Home | Current Version | Previous Version | Text Only | Print | Product List | Glossary On
Versions: 1 2 3 4 5 6 7 8 9 10 11 12 13
000
FTUS45 KABQ 231748
TAFABQ
TAF
KABQ 231748Z 2318/2418 22017G27KT P6SM FEW100
      TEMPO 2318/2321 22025G35KT
     FM232100 24026G36KT P6SM VCSH SCT050 BKN100
     FM232300 28027G40KT P6SM VCSH SCT050 BKN100
     FM240200 27017G27KT P6SM SCT040 BKN080
     FM241500 31019G29KT P6SM SKC=

USA.gov is the U.S. government's official web portal to all federal, state and local government web resources and services.